Terminal Aerodrome Forecast
Issued by NWS

Home | Current Version | Previous Version | Text Only | Print | Product List | Glossary On
Versions: 1 2 3 4 5 6 7 8 9 10 11 12 13 14 15 16 17 18 19 20 21 22
000
FTUS45 KCYS 281722
TAFLAR
TAF
KLAR 281722Z 2818/2918 02013KT P6SM -RA OVC015
      TEMPO 2818/2822 2SM -RA BR OVC007
     FM290000 01015G23KT 1SM -SNRA OVC005
     FM290400 01015KT 1SM -SN OVC002
     FM291200 36010KT 4SM -SN BR OVC004
     FM291500 35009KT P6SM OVC005=

USA.gov is the U.S. government's official web portal to all federal, state and local government web resources and services.